首页
METAR-TAF:

METAR-TAF

机场 :

姆马巴托国际机场

梅富根, 南非共和國

纬度: 25-47S, 经度: 025-32E, 海拔: 1281米

当前天气观测

该预报发布于1小时和14分钟前的03:00 UTC
风速4节,风向东转东北
温度 8°C
湿度 57%
气压 1025 hPa
能见度10公里或以上
1500米以下无云,无积雨云

METAR: FAMM 250300Z 06004KT CAVOK 08/00 Q1025 NOSIG

时间: 06:14 (04:14 UTC)

预报

该预报发布于1小时和14分钟前的03:00 UTC
预报有效从25日的 04点(UTC)到 25日的 15点(UTC)
风速3节,风向多变
能见度10公里或以上
1500米以下无云,无积雨云
成为
从 25日的 07点(UTC)到 25日的 09点(UTC)
风速10节,风向
成为
从 25日的 11点(UTC)到 25日的 13点(UTC)
风速3节,风向多变

TAF: FAMM 250300Z 2504/2515 VRB03KT CAVOK TX25/2512Z TN07/2504Z BECMG 2507/2509 01010KT BECMG 2511/2513 VRB03KT

超过4000个机场的气象观测和天气预报(METAR&TAF报告)。

可查询的气象台以黄色和红色小点在地图上表示。

将鼠标移到小点上方,可查看气象台名称。

然后点击查看天气观测和预报。

如需切换地图:点击带黑十字的绿色按钮放大地图;点击带横线的绿色按钮缩小地图;或者点击绿色箭头查看邻近地区的地图。


METAR-TAF: